createdAt,value
2018-07-26T00:03:45.936Z,94.50
2018-07-26T00:08:40.466Z,94.60
2018-07-26T00:13:35.069Z,94.80
2018-07-26T00:18:29.605Z,94.70
2018-07-26T00:23:24.161Z,94.90
2018-07-26T00:28:18.731Z,95.00
2018-07-26T00:33:13.326Z,95.30
2018-07-26T00:38:07.900Z,95.40
2018-07-26T00:43:02.408Z,95.80
2018-07-26T00:47:57.005Z,95.90
2018-07-26T00:52:51.581Z,96.10
2018-07-26T00:57:46.146Z,96.30
2018-07-26T01:02:40.681Z,96.70
2018-07-26T01:07:35.249Z,96.80
2018-07-26T01:12:29.838Z,97.10
2018-07-26T01:17:24.552Z,97.10
2018-07-26T01:22:19.186Z,97.30
2018-07-26T01:27:14.139Z,97.30
2018-07-26T01:32:08.712Z,97.80
2018-07-26T01:37:03.280Z,98.00
2018-07-26T01:41:57.893Z,97.90
2018-07-26T01:46:52.496Z,98.00
2018-07-26T01:51:47.128Z,98.50
2018-07-26T01:56:41.686Z,98.80
2018-07-26T02:01:36.271Z,99.00
2018-07-26T02:06:30.789Z,99.30
2018-07-26T02:11:25.424Z,99.50
2018-07-26T02:16:20.072Z,99.90
2018-07-26T02:21:14.696Z,99.90
2018-07-26T02:26:09.503Z,99.90
2018-07-26T02:31:04.138Z,99.90
2018-07-26T02:35:58.631Z,99.90
2018-07-26T02:45:47.627Z,99.90
2018-07-26T02:55:36.417Z,99.90
2018-07-26T03:00:31.034Z,99.90
2018-07-26T03:05:25.566Z,99.90
2018-07-26T03:10:20.179Z,99.90
2018-07-26T03:15:14.804Z,99.90
2018-07-26T03:20:09.404Z,99.90
2018-07-26T03:25:04.021Z,99.90
2018-07-26T03:29:58.609Z,99.90
2018-07-26T03:34:53.144Z,99.90
2018-07-26T03:39:47.684Z,99.90
2018-07-26T03:44:42.258Z,99.90
2018-07-26T03:49:36.857Z,99.90
2018-07-26T03:54:31.450Z,99.90
2018-07-26T03:59:26.585Z,99.90
2018-07-26T04:04:21.092Z,99.90
2018-07-26T04:09:16.294Z,99.90
2018-07-26T04:14:11.031Z,99.90
2018-07-26T04:19:05.720Z,99.90
2018-07-26T04:24:00.700Z,99.90
2018-07-26T04:28:55.274Z,99.90
2018-07-26T04:33:50.102Z,99.60
2018-07-26T04:38:44.629Z,98.30
2018-07-26T04:43:39.236Z,96.70
2018-07-26T04:48:34.425Z,95.40
2018-07-26T04:58:23.810Z,92.70
2018-07-26T05:03:18.568Z,91.30
2018-07-26T05:08:13.204Z,89.70
2018-07-26T05:13:07.822Z,85.60
2018-07-26T05:18:02.388Z,84.40
2018-07-26T05:22:56.999Z,80.70
2018-07-26T05:27:51.925Z,77.80
2018-07-26T05:32:47.720Z,75.70
2018-07-26T05:37:42.637Z,74.90
2018-07-26T05:42:37.341Z,73.70
2018-07-26T05:47:31.996Z,72.10
2018-07-26T05:52:26.607Z,72.50
2018-07-26T05:57:33.798Z,73.10
2018-07-26T06:02:28.896Z,71.00
2018-07-26T06:12:18.037Z,69.70
2018-07-26T06:17:12.899Z,69.20
2018-07-26T06:22:07.421Z,70.80
2018-07-26T06:27:01.850Z,69.20
2018-07-26T06:31:56.349Z,67.40
2018-07-26T06:36:50.778Z,70.80
2018-07-26T06:41:45.513Z,71.70
2018-07-26T06:51:34.385Z,72.10
2018-07-26T06:56:28.906Z,74.00
2018-07-26T07:01:23.381Z,75.10
2018-07-26T07:06:17.805Z,75.30
2018-07-26T07:11:12.325Z,76.60
2018-07-26T07:16:06.815Z,78.60
2018-07-26T07:21:03.094Z,79.80
2018-07-26T07:25:58.538Z,78.40
2018-07-26T07:36:02.199Z,77.60
2018-07-26T07:40:56.852Z,77.00
2018-07-26T07:45:51.427Z,76.80
2018-07-26T07:50:47.082Z,78.40
2018-07-26T07:55:41.893Z,77.20
2018-07-26T08:00:36.325Z,77.40
2018-07-26T08:05:30.784Z,77.40
2018-07-26T08:10:25.300Z,76.10
2018-07-26T08:15:19.909Z,77.80
2018-07-26T08:20:14.371Z,77.10
2018-07-26T08:25:09.721Z,76.60
2018-07-26T08:30:05.682Z,76.40
2018-07-26T08:35:00.221Z,75.00
2018-07-26T08:39:54.853Z,75.40
2018-07-26T08:44:50.653Z,75.90
2018-07-26T08:49:46.204Z,74.90
2018-07-26T08:54:41.330Z,73.40
2018-07-26T09:04:37.228Z,73.80
2018-07-26T09:09:32.621Z,75.00
2018-07-26T09:14:27.114Z,74.90
2018-07-26T09:24:22.216Z,73.80
2018-07-26T09:29:17.319Z,73.40
2018-07-26T09:34:11.961Z,73.80
2018-07-26T09:39:14.126Z,73.00
2018-07-26T09:44:09.745Z,72.50
2018-07-26T09:49:04.392Z,72.00
2018-07-26T09:53:58.867Z,69.90
2018-07-26T09:58:53.404Z,70.50
2018-07-26T10:03:47.884Z,68.10
2018-07-26T10:08:42.392Z,67.40
2018-07-26T10:13:36.877Z,66.10
2018-07-26T10:18:31.491Z,64.60
2018-07-26T10:23:25.967Z,62.30
2018-07-26T10:28:31.374Z,61.10
2018-07-26T10:33:26.089Z,60.20
2018-07-26T10:38:20.724Z,59.90
2018-07-26T10:43:15.554Z,60.00
2018-07-26T10:48:10.329Z,59.20
2018-07-26T10:53:05.204Z,58.90
2018-07-26T10:58:02.032Z,58.20
2018-07-26T11:03:08.297Z,58.30
2018-07-26T11:08:03.434Z,59.50
2018-07-26T11:12:58.663Z,59.40
2018-07-26T11:17:53.573Z,58.60
2018-07-26T11:22:48.444Z,56.80
2018-07-26T11:27:43.722Z,55.50
2018-07-26T11:32:38.453Z,54.50
2018-07-26T11:37:37.257Z,56.10
2018-07-26T11:42:39.800Z,57.20
2018-07-26T11:47:46.386Z,56.10
2018-07-26T11:52:41.571Z,55.20
2018-07-26T11:57:36.285Z,55.80
2018-07-26T12:24:04.562Z,51.40
2018-07-26T12:29:01.105Z,52.40
2018-07-26T12:33:58.272Z,50.60
2018-07-26T12:38:53.090Z,50.70
2018-07-26T12:43:47.893Z,52.10
2018-07-26T12:48:42.571Z,51.40
2018-07-26T13:09:52.190Z,50.50
2018-07-26T13:14:47.076Z,50.80
2018-07-26T13:19:41.805Z,51.00
2018-07-26T13:24:36.469Z,51.50
2018-07-26T13:29:31.141Z,50.90
2018-07-26T13:34:26.048Z,51.70
2018-07-26T13:39:21.626Z,51.60
2018-07-26T13:44:17.271Z,53.00
2018-07-26T13:49:12.097Z,52.70
2018-07-26T13:54:07.165Z,52.30
2018-07-26T13:59:01.939Z,52.60
2018-07-26T14:03:56.988Z,51.70
2018-07-26T14:08:51.601Z,51.10
2018-07-26T14:13:46.376Z,50.00
2018-07-26T14:18:41.364Z,51.00
2018-07-26T14:23:38.153Z,51.10
2018-07-26T14:28:32.925Z,52.00
2018-07-26T14:33:27.560Z,51.40
2018-07-26T14:38:22.160Z,50.50
2018-07-26T14:43:16.771Z,50.80
2018-07-26T14:48:11.430Z,51.20
2018-07-26T14:53:06.216Z,50.30
2018-07-26T14:58:01.050Z,50.40
2018-07-26T15:02:55.873Z,50.20
2018-07-26T15:07:50.734Z,50.30
2018-07-26T15:12:45.345Z,49.70
2018-07-26T15:17:40.391Z,49.40
2018-07-26T15:22:35.081Z,48.50
2018-07-26T15:27:30.073Z,48.90
2018-07-26T15:32:24.676Z,50.00
2018-07-26T15:37:19.280Z,50.30
2018-07-26T15:42:14.046Z,49.70
2018-07-26T15:47:08.774Z,49.60
2018-07-26T15:52:03.549Z,49.60
2018-07-26T15:56:58.257Z,48.60
2018-07-26T16:01:52.854Z,47.50
2018-07-26T16:06:47.731Z,48.30
2018-07-26T16:11:42.432Z,48.80
2018-07-26T16:16:37.030Z,49.30
2018-07-26T16:21:31.669Z,49.50
2018-07-26T16:26:26.320Z,50.00
2018-07-26T16:31:21.781Z,49.90
2018-07-26T16:36:16.441Z,49.00
2018-07-26T16:41:11.065Z,49.30
2018-07-26T16:46:05.780Z,49.40
2018-07-26T16:51:00.571Z,50.10
2018-07-26T16:55:55.129Z,51.10
2018-07-26T17:00:49.721Z,51.20
2018-07-26T17:05:44.394Z,51.10
2018-07-26T17:10:39.030Z,49.80
2018-07-26T17:15:33.664Z,49.70
2018-07-26T17:20:28.574Z,50.40
2018-07-26T17:25:26.155Z,51.00
2018-07-26T17:30:20.793Z,52.00
2018-07-26T17:35:15.295Z,53.00
2018-07-26T17:40:10.161Z,52.50
2018-07-26T17:45:07.280Z,52.70
2018-07-26T17:50:01.866Z,53.30
2018-07-26T17:54:56.744Z,54.00
2018-07-26T17:59:51.304Z,54.60
2018-07-26T18:04:45.856Z,55.70
2018-07-26T18:14:34.709Z,57.80
2018-07-26T18:19:30.013Z,58.00
2018-07-26T18:24:24.590Z,58.50
2018-07-26T18:29:19.198Z,58.90
2018-07-26T18:34:13.753Z,58.70
2018-07-26T18:39:11.898Z,59.10
2018-07-26T18:44:06.765Z,59.50
2018-07-26T18:49:01.190Z,59.90
2018-07-26T18:53:55.955Z,60.40
2018-07-26T18:58:50.566Z,61.10
2018-07-26T19:03:45.189Z,62.00
2018-07-26T19:08:39.800Z,63.00
2018-07-26T19:13:34.622Z,64.20
2018-07-26T19:18:29.250Z,64.70
2018-07-26T19:23:23.807Z,65.60
2018-07-26T19:28:18.369Z,66.50
2018-07-26T19:38:07.273Z,67.90
2018-07-26T19:43:01.830Z,68.70
2018-07-26T19:47:56.604Z,69.90
2018-07-26T19:57:45.687Z,70.60
2018-07-26T20:02:40.444Z,71.40
2018-07-26T20:07:34.981Z,71.80
2018-07-26T20:12:29.657Z,72.20
2018-07-26T20:17:24.425Z,72.60
2018-07-26T20:22:19.118Z,74.10
2018-07-26T20:27:13.753Z,75.50
2018-07-26T20:32:08.306Z,75.90
2018-07-26T20:37:02.913Z,76.30
2018-07-26T20:41:57.569Z,77.20
2018-07-26T20:51:46.476Z,77.70
2018-07-26T20:56:41.042Z,78.70
2018-07-26T21:01:35.637Z,79.60
2018-07-26T21:06:30.328Z,79.30
2018-07-26T21:16:19.271Z,78.60
2018-07-26T21:21:13.839Z,78.70
2018-07-26T21:26:08.377Z,78.80
2018-07-26T21:31:02.960Z,79.50
2018-07-26T21:35:57.560Z,80.00
2018-07-26T21:40:52.130Z,80.60
2018-07-26T21:45:47.157Z,80.80
2018-07-26T21:50:41.734Z,80.90
2018-07-26T21:55:36.366Z,81.70
2018-07-26T22:00:39.693Z,82.00
2018-07-26T22:05:34.246Z,83.10
2018-07-26T22:10:28.901Z,83.40
2018-07-26T22:15:23.525Z,83.70
2018-07-26T22:20:18.126Z,83.80
2018-07-26T22:25:12.708Z,84.30
2018-07-26T22:30:07.374Z,84.60
2018-07-26T22:35:01.921Z,84.90
2018-07-26T22:39:56.561Z,85.20
2018-07-26T22:44:51.096Z,85.70
2018-07-26T22:49:45.644Z,85.80
2018-07-26T22:54:40.233Z,85.40
2018-07-26T23:04:29.015Z,86.60
2018-07-26T23:09:23.568Z,88.20
2018-07-26T23:14:18.095Z,87.50
2018-07-26T23:19:12.641Z,88.30
2018-07-26T23:24:07.254Z,89.50
2018-07-26T23:29:01.819Z,90.30
2018-07-26T23:33:56.461Z,90.60
2018-07-26T23:38:50.990Z,90.80
2018-07-26T23:48:39.783Z,91.10
